Time;durP1;ratioP1;P1;durP2;ratioP2;P2;SDS_P1;SDS_P2;PMS_P1;PMS_P2;Temp;Humidity;BMP_temperature;BMP_pressure;BME280_temperature;BME280_humidity;BME280_pressure;Samples;Min_cycle;Max_cycle;Signal;HPM_P1;HPM_P2
2023/07/06 00:02:09;;;;;;;11.25;7.05;;;14.70;99.90;;;;;;4992443;28;20036;-85
2023/07/06 00:04:38;;;;;;;13.70;6.65;;;14.70;99.90;;;;;;4983075;28;20485;-86
2023/07/06 00:07:04;;;;;;;11.02;6.65;;;14.70;99.90;;;;;;4991066;28;20399;-87
2023/07/06 00:09:35;;;;;;;12.32;6.78;;;14.70;99.90;;;;;;4990606;28;20113;-86
2023/07/06 00:12:03;;;;;;;11.23;6.57;;;14.70;99.90;;;;;;4990827;28;20441;-87
2023/07/06 00:14:28;;;;;;;11.40;6.70;;;14.70;99.90;;;;;;5003779;28;20057;-87
2023/07/06 00:17:15;;;;;;;9.63;6.68;;;14.70;99.90;;;;;;4988725;28;20041;-86
2023/07/06 00:19:46;;;;;;;14.68;6.90;;;14.70;99.90;;;;;;4994658;28;20036;-87
2023/07/06 00:22:12;;;;;;;12.02;6.30;;;14.70;99.90;;;;;;4995155;28;20040;-87
2023/07/06 00:24:40;;;;;;;10.48;6.65;;;14.60;99.90;;;;;;4987157;28;20119;-87
2023/07/06 00:27:06;;;;;;;18.73;7.65;;;14.60;99.90;;;;;;5017372;28;20042;-87
2023/07/06 00:29:35;;;;;;;9.23;7.00;;;14.50;99.90;;;;;;5013297;28;20630;-86
2023/07/06 00:32:15;;;;;;;17.13;7.38;;;14.60;99.90;;;;;;4994086;28;20023;-87
2023/07/06 00:34:43;;;;;;;13.10;7.63;;;14.60;99.90;;;;;;4979554;28;20037;-86
2023/07/06 00:37:10;;;;;;;10.02;6.80;;;14.60;99.90;;;;;;4986591;28;20048;-86
2023/07/06 00:39:39;;;;;;;15.80;7.25;;;14.60;99.90;;;;;;4980522;28;20022;-87
2023/07/06 00:42:15;;;;;;;10.65;6.25;;;14.50;99.90;;;;;;4984638;28;20038;-87
2023/07/06 00:44:57;;;;;;;15.70;6.60;;;14.50;99.90;;;;;;4997265;28;20027;-86
2023/07/06 00:48:04;;;;;;;13.60;6.60;;;14.50;99.90;;;;;;4975552;28;20019;-87
2023/07/06 00:50:32;;;;;;;13.85;6.65;;;14.50;99.90;;;;;;4952358;28;20034;-86
2023/07/06 00:52:59;;;;;;;12.60;6.25;;;14.40;99.90;;;;;;4967154;28;20019;-88
2023/07/06 00:55:29;;;;;;;15.68;6.47;;;14.40;99.90;;;;;;4972499;28;20418;-87
2023/07/06 00:58:08;;;;;;;9.88;6.72;;;14.30;99.90;;;;;;4970661;28;20027;-86
2023/07/06 01:00:40;;;;;;;10.23;6.43;;;14.30;99.90;;;;;;4967328;28;20074;-87
2023/07/06 01:03:07;;;;;;;16.33;6.70;;;14.30;99.90;;;;;;4959756;28;20031;-87
2023/07/06 01:05:33;;;;;;;12.15;6.65;;;14.30;99.90;;;;;;4985901;28;20109;-86
2023/07/06 01:08:07;;;;;;;13.18;6.68;;;14.20;99.90;;;;;;4980395;28;20160;-87
2023/07/06 01:10:34;;;;;;;11.65;6.70;;;14.30;99.90;;;;;;4964895;28;20166;-88
2023/07/06 01:13:00;;;;;;;12.07;6.72;;;14.20;99.90;;;;;;4970963;28;20414;-87
2023/07/06 01:15:29;;;;;;;13.15;6.90;;;14.20;99.90;;;;;;4977198;28;20046;-87
2023/07/06 01:18:07;;;;;;;11.00;6.50;;;14.20;99.90;;;;;;4974996;28;20018;-88
2023/07/06 01:21:02;;;;;;;16.75;6.85;;;14.20;99.90;;;;;;4977180;28;20034;-88
2023/07/06 01:23:46;;;;;;;15.23;6.78;;;14.30;99.90;;;;;;4986340;28;20076;-85
2023/07/06 01:26:22;;;;;;;11.15;6.57;;;14.20;99.90;;;;;;4987675;28;20292;-88
2023/07/06 01:28:54;;;;;;;10.45;6.60;;;14.20;99.90;;;;;;4986620;28;20026;-87
2023/07/06 01:32:02;;;;;;;13.68;6.70;;;14.20;99.90;;;;;;4992135;28;20038;-88
2023/07/06 01:35:10;;;;;;;10.52;6.53;;;14.10;99.90;;;;;;4982500;28;20034;-85
2023/07/06 01:37:41;;;;;;;16.30;6.40;;;14.10;99.90;;;;;;4964752;28;20091;-87
2023/07/06 01:40:09;;;;;;;6.35;5.68;;;14.00;99.90;;;;;;4987237;28;20109;-87
2023/07/06 01:42:40;;;;;;;14.25;6.30;;;14.00;99.90;;;;;;4990125;28;20007;-88
2023/07/06 01:45:24;;;;;;;11.05;6.10;;;14.00;99.90;;;;;;5004355;28;20034;-88
2023/07/06 01:47:55;;;;;;;10.65;6.18;;;13.90;99.90;;;;;;4997563;28;20026;-86
2023/07/06 01:50:31;;;;;;;20.38;6.05;;;13.90;99.90;;;;;;4999866;28;20030;-88
2023/07/06 01:53:05;;;;;;;12.05;5.93;;;13.90;99.90;;;;;;4989980;28;20054;-87
2023/07/06 01:56:04;;;;;;;11.18;6.43;;;13.90;99.90;;;;;;4990866;28;20026;-87
2023/07/06 01:58:35;;;;;;;10.38;5.53;;;14.00;99.90;;;;;;4985370;28;20033;-88
2023/07/06 02:01:14;;;;;;;6.90;5.63;;;13.90;99.90;;;;;;4983938;28;20030;-87
2023/07/06 02:03:41;;;;;;;8.98;5.88;;;13.90;99.90;;;;;;4990196;28;20040;-85
2023/07/06 02:06:08;;;;;;;8.85;6.07;;;13.90;99.90;;;;;;4994132;28;20025;-87
2023/07/06 02:08:41;;;;;;;11.88;6.63;;;13.90;99.90;;;;;;4991218;28;20263;-87
2023/07/06 02:11:10;;;;;;;9.10;6.03;;;13.90;99.90;;;;;;4990255;28;20038;-87
2023/07/06 02:13:38;;;;;;;9.93;5.97;;;13.90;99.90;;;;;;4994340;28;20660;-87
2023/07/06 02:16:05;;;;;;;8.88;5.95;;;13.80;99.90;;;;;;4991430;28;20406;-88
2023/07/06 02:18:33;;;;;;;11.13;5.05;;;13.80;99.90;;;;;;4984985;28;20529;-88
2023/07/06 02:21:01;;;;;;;12.35;5.93;;;13.60;99.90;;;;;;4983743;28;20049;-87
2023/07/06 02:23:26;;;;;;;6.30;5.65;;;13.60;99.90;;;;;;4996072;28;20022;-89
2023/07/06 02:25:53;;;;;;;14.63;5.90;;;13.60;99.90;;;;;;4984208;28;20390;-86
2023/07/06 02:28:21;;;;;;;7.47;6.05;;;13.60;99.90;;;;;;4987512;28;20049;-85
2023/07/06 02:30:50;;;;;;;8.23;5.65;;;13.60;99.90;;;;;;5002221;28;20098;-86
2023/07/06 02:33:17;;;;;;;12.52;5.90;;;13.60;99.90;;;;;;5018360;28;20027;-86
2023/07/06 02:35:46;;;;;;;8.20;5.97;;;13.60;99.90;;;;;;4983755;28;20535;-86
2023/07/06 02:38:13;;;;;;;16.45;6.35;;;13.60;99.90;;;;;;5000408;28;20027;-85
2023/07/06 02:40:39;;;;;;;15.43;5.75;;;13.50;99.90;;;;;;4991999;28;20022;-84
2023/07/06 02:43:07;;;;;;;6.13;5.30;;;13.60;99.90;;;;;;4990688;28;20033;-85
2023/07/06 02:45:34;;;;;;;14.00;6.00;;;13.60;99.90;;;;;;4992762;28;20105;-85
2023/07/06 02:47:59;;;;;;;7.65;5.72;;;13.60;99.90;;;;;;4989814;28;20104;-85
2023/07/06 02:50:27;;;;;;;10.35;5.63;;;13.50;99.90;;;;;;4992260;28;20482;-86
2023/07/06 02:52:52;;;;;;;9.73;5.68;;;13.50;99.90;;;;;;4988459;28;20628;-85
2023/07/06 02:55:18;;;;;;;16.45;5.72;;;13.50;99.90;;;;;;4999567;28;20026;-85
2023/07/06 02:57:44;;;;;;;15.32;5.85;;;13.50;99.90;;;;;;5003258;28;20292;-84
2023/07/06 03:00:13;;;;;;;8.13;5.78;;;13.50;99.90;;;;;;4991356;28;20058;-85
2023/07/06 03:02:39;;;;;;;13.07;5.72;;;13.60;99.90;;;;;;4993356;28;20122;-84
2023/07/06 03:05:05;;;;;;;10.70;5.35;;;13.60;99.90;;;;;;4994255;28;20442;-85
2023/07/06 03:07:34;;;;;;;19.25;7.32;;;13.50;99.90;;;;;;4983181;28;20026;-84
2023/07/06 03:10:05;;;;;;;13.18;5.50;;;13.50;99.90;;;;;;4989296;28;20034;-87
2023/07/06 03:12:33;;;;;;;13.93;5.88;;;13.50;99.90;;;;;;5005178;28;20488;-84
2023/07/06 03:15:00;;;;;;;15.20;5.72;;;13.60;99.90;;;;;;4992021;28;20410;-88
2023/07/06 03:17:28;;;;;;;10.55;5.70;;;13.50;99.90;;;;;;4995701;28;20022;-85
2023/07/06 03:19:53;;;;;;;11.52;5.72;;;13.60;99.90;;;;;;5004733;28;20038;-86
2023/07/06 03:22:20;;;;;;;10.40;6.35;;;13.60;99.90;;;;;;5000604;28;20121;-86
2023/07/06 03:24:46;;;;;;;22.42;6.32;;;13.60;99.90;;;;;;4993261;28;20034;-85
2023/07/06 03:27:11;;;;;;;9.88;4.90;;;13.60;99.90;;;;;;4993294;28;20101;-86
2023/07/06 03:29:39;;;;;;;15.70;5.47;;;13.60;99.90;;;;;;4990234;28;20030;-85
2023/07/06 03:32:06;;;;;;;11.50;6.15;;;13.70;99.90;;;;;;4988972;28;20274;-85
2023/07/06 03:34:32;;;;;;;8.10;5.55;;;13.70;99.90;;;;;;4996653;28;20105;-88
2023/07/06 03:36:58;;;;;;;14.00;5.70;;;13.60;99.90;;;;;;4991222;28;20032;-88
2023/07/06 03:39:23;;;;;;;10.15;5.97;;;13.60;99.90;;;;;;4992068;28;20026;-85
2023/07/06 03:41:49;;;;;;;11.02;5.65;;;13.60;99.90;;;;;;4995335;28;20027;-85
2023/07/06 03:44:24;;;;;;;12.50;5.97;;;13.60;99.90;;;;;;4991219;28;20029;-85
2023/07/06 03:46:49;;;;;;;8.65;5.90;;;13.60;99.90;;;;;;4992220;28;20022;-85
2023/07/06 03:49:15;;;;;;;11.43;5.65;;;13.60;99.90;;;;;;4990965;28;20021;-84
2023/07/06 03:51:45;;;;;;;13.70;5.82;;;13.60;99.90;;;;;;4992987;28;20030;-85
2023/07/06 03:54:12;;;;;;;10.02;5.68;;;13.70;99.90;;;;;;4992197;28;20022;-86
2023/07/06 03:56:39;;;;;;;11.25;5.47;;;13.70;99.90;;;;;;4994864;28;20276;-88
2023/07/06 03:59:05;;;;;;;5.78;5.28;;;13.70;99.90;;;;;;4994379;28;20385;-86
2023/07/06 04:01:31;;;;;;;8.43;5.15;;;13.70;99.90;;;;;;4987753;28;20025;-86
2023/07/06 04:04:04;;;;;;;15.50;5.53;;;13.70;99.90;;;;;;4982750;28;20085;-86
2023/07/06 04:06:29;;;;;;;14.77;5.38;;;13.70;99.90;;;;;;5002196;28;20026;-86
2023/07/06 04:08:59;;;;;;;7.75;5.13;;;13.80;99.90;;;;;;4986909;28;20442;-86
2023/07/06 04:11:27;;;;;;;12.18;5.43;;;13.80;99.90;;;;;;4996857;28;20077;-86
2023/07/06 04:13:59;;;;;;;10.93;5.43;;;13.80;99.90;;;;;;4994924;28;20022;-86
2023/07/06 04:16:24;;;;;;;13.10;5.72;;;13.80;99.90;;;;;;4995187;28;20038;-93
2023/07/06 04:18:50;;;;;;;8.82;5.07;;;13.80;99.90;;;;;;4998149;28;20562;-93
2023/07/06 04:21:20;;;;;;;11.85;5.63;;;13.80;99.90;;;;;;4999116;28;20461;-86
2023/07/06 04:23:49;;;;;;;15.02;5.63;;;13.70;99.90;;;;;;4995469;28;20426;-87
2023/07/06 04:26:19;;;;;;;18.27;4.85;;;13.80;99.90;;;;;;4995401;28;20092;-86
2023/07/06 04:28:47;;;;;;;15.52;5.57;;;13.80;99.90;;;;;;4994818;28;20483;-86
2023/07/06 04:31:16;;;;;;;12.15;5.25;;;13.80;99.90;;;;;;5007824;28;20324;-85
2023/07/06 04:33:45;;;;;;;11.32;5.05;;;13.90;99.90;;;;;;4990429;28;20038;-86
2023/07/06 04:36:12;;;;;;;13.23;4.70;;;13.90;99.90;;;;;;4997143;28;20373;-86
2023/07/06 04:38:38;;;;;;;8.00;4.78;;;13.80;99.90;;;;;;5012460;28;20042;-87
2023/07/06 04:41:04;;;;;;;11.57;5.60;;;13.90;99.90;;;;;;4997171;28;20046;-85
2023/07/06 04:43:30;;;;;;;7.38;5.28;;;13.90;99.90;;;;;;4990200;28;20042;-86
2023/07/06 04:45:58;;;;;;;16.73;4.47;;;13.80;99.90;;;;;;4991603;28;20388;-86
2023/07/06 04:48:26;;;;;;;7.55;4.63;;;13.80;99.90;;;;;;4993746;28;20477;-87
2023/07/06 04:50:54;;;;;;;10.73;4.63;;;13.80;99.90;;;;;;4985421;28;20050;-86
2023/07/06 04:53:25;;;;;;;9.05;4.75;;;13.80;99.90;;;;;;5004743;28;20800;-85
2023/07/06 04:55:51;;;;;;;10.68;5.25;;;13.90;99.90;;;;;;4987605;28;20180;-86
2023/07/06 04:58:17;;;;;;;10.35;4.55;;;13.90;99.90;;;;;;4992040;28;20048;-87
2023/07/06 05:00:45;;;;;;;12.20;4.30;;;13.90;99.90;;;;;;4990503;28;20050;-86
2023/07/06 05:03:12;;;;;;;8.85;4.32;;;14.00;99.90;;;;;;4991062;28;20026;-87
2023/07/06 05:05:40;;;;;;;8.98;4.03;;;14.10;99.90;;;;;;4989947;28;20104;-85
2023/07/06 05:08:12;;;;;;;11.30;4.47;;;14.00;99.90;;;;;;4991382;28;20037;-86
2023/07/06 05:10:38;;;;;;;16.33;5.60;;;14.00;99.90;;;;;;4985164;28;20019;-86
2023/07/06 05:13:05;;;;;;;16.35;4.43;;;14.10;99.90;;;;;;4992889;28;20022;-86
2023/07/06 05:15:31;;;;;;;16.42;4.53;;;14.20;99.90;;;;;;4973901;28;20507;-86
2023/07/06 05:17:56;;;;;;;12.50;4.80;;;14.10;99.90;;;;;;4985996;28;20109;-85
2023/07/06 05:20:22;;;;;;;12.93;4.50;;;14.20;99.90;;;;;;5007670;28;20077;-85
2023/07/06 05:22:49;;;;;;;10.50;4.13;;;14.10;99.90;;;;;;4999797;28;20028;-86
2023/07/06 05:25:17;;;;;;;12.48;4.82;;;14.20;99.90;;;;;;5012583;28;20033;-95
2023/07/06 05:27:43;;;;;;;15.25;4.95;;;14.10;99.90;;;;;;4996053;28;20232;-96
2023/07/06 05:30:09;;;;;;;13.27;4.32;;;14.20;99.90;;;;;;5000294;28;20104;-96
2023/07/06 05:32:39;;;;;;;9.13;4.22;;;14.20;99.90;;;;;;4994774;28;20023;-96
2023/07/06 05:35:05;;;;;;;10.65;4.10;;;14.20;99.90;;;;;;4997192;28;20054;-96
2023/07/06 05:37:33;;;;;;;11.85;4.25;;;14.40;99.90;;;;;;4992917;28;20141;-95
2023/07/06 05:39:59;;;;;;;10.02;4.05;;;14.50;99.90;;;;;;5009232;28;20069;-90
2023/07/06 05:42:25;;;;;;;12.73;3.85;;;14.50;99.90;;;;;;5009366;28;20038;-95
2023/07/06 05:44:51;;;;;;;8.38;4.22;;;14.60;99.90;;;;;;4994412;28;20092;-84
2023/07/06 05:47:17;;;;;;;13.77;4.38;;;14.70;99.90;;;;;;4996115;28;20056;-90
2023/07/06 05:49:42;;;;;;;10.30;4.50;;;14.90;99.90;;;;;;5005719;28;20025;-90
2023/07/06 05:52:08;;;;;;;16.65;5.38;;;14.80;99.90;;;;;;5014174;28;20036;-88
2023/07/06 05:54:33;;;;;;;15.77;4.45;;;14.80;99.90;;;;;;5018990;28;20018;-88
2023/07/06 05:57:02;;;;;;;15.27;4.93;;;14.80;99.90;;;;;;5011832;28;20035;-88
2023/07/06 05:59:29;;;;;;;11.80;4.38;;;14.90;99.90;;;;;;5005168;28;20113;-87
2023/07/06 06:01:56;;;;;;;14.05;5.18;;;14.90;99.90;;;;;;5005891;28;20030;-89
2023/07/06 06:04:22;;;;;;;8.63;4.50;;;14.90;99.90;;;;;;5002561;28;20249;-88
2023/07/06 06:06:54;;;;;;;7.93;3.83;;;14.90;99.90;;;;;;4996432;28;20026;-90
2023/07/06 06:09:21;;;;;;;8.48;4.03;;;15.00;99.90;;;;;;5003610;28;20040;-90
2023/07/06 06:11:48;;;;;;;7.93;3.50;;;15.00;99.90;;;;;;5001775;28;20080;-89
2023/07/06 06:14:14;;;;;;;12.80;4.38;;;15.20;99.90;;;;;;4984361;28;20023;-89
2023/07/06 06:16:40;;;;;;;15.48;3.95;;;15.30;99.90;;;;;;5000552;28;20511;-90
2023/07/06 06:19:06;;;;;;;11.65;4.22;;;15.50;99.90;;;;;;4996446;28;20190;-91
2023/07/06 06:21:33;;;;;;;14.80;3.85;;;15.40;99.90;;;;;;4998423;28;20022;-91
2023/07/06 06:23:59;;;;;;;9.75;4.30;;;15.40;99.90;;;;;;4992104;28;20054;-89
2023/07/06 06:26:25;;;;;;;13.43;4.38;;;15.50;99.90;;;;;;4995170;28;20407;-89
2023/07/06 06:28:51;;;;;;;16.63;4.60;;;15.70;99.90;;;;;;5011158;28;20029;-89
2023/07/06 06:31:19;;;;;;;16.20;4.90;;;15.80;99.90;;;;;;5025611;28;20034;-88
2023/07/06 06:33:46;;;;;;;20.40;4.63;;;15.80;99.90;;;;;;5015689;28;20079;-87
2023/07/06 06:36:16;;;;;;;16.83;5.15;;;16.00;99.90;;;;;;4993315;28;20030;-91
2023/07/06 06:38:42;;;;;;;12.70;4.57;;;16.10;99.90;;;;;;5006713;28;20265;-90
2023/07/06 06:41:10;;;;;;;16.98;5.03;;;16.10;99.90;;;;;;4996351;28;20512;-89
2023/07/06 06:43:39;;;;;;;13.48;4.50;;;16.20;99.90;;;;;;4995808;28;20089;-90
2023/07/06 06:46:06;;;;;;;8.93;4.07;;;16.40;99.90;;;;;;5005060;28;20469;-87
2023/07/06 06:48:35;;;;;;;16.67;4.68;;;16.50;99.90;;;;;;5011350;28;20126;-89
2023/07/06 06:51:02;;;;;;;11.40;4.57;;;16.60;99.90;;;;;;5003150;28;20069;-89
2023/07/06 06:53:28;;;;;;;14.48;4.53;;;16.60;99.90;;;;;;4996058;28;20403;-89
2023/07/06 06:55:54;;;;;;;10.82;5.05;;;16.50;99.90;;;;;;4999941;28;20042;-93
2023/07/06 06:58:23;;;;;;;13.50;4.63;;;16.50;99.90;;;;;;4997427;28;20046;-92
2023/07/06 07:01:20;;;;;;;16.08;5.70;;;16.60;99.90;;;;;;4997416;28;20471;-91
2023/07/06 07:03:46;;;;;;;12.18;5.20;;;16.70;99.90;;;;;;4995666;28;20106;-91
2023/07/06 07:06:13;;;;;;;17.23;6.15;;;16.70;99.90;;;;;;4999450;28;20069;-92
2023/07/06 07:08:43;;;;;;;23.52;6.22;;;16.80;99.90;;;;;;4994900;28;20177;-90
2023/07/06 07:11:10;;;;;;;17.35;5.85;;;17.00;99.90;;;;;;5006803;28;20034;-89
2023/07/06 07:13:37;;;;;;;16.00;6.10;;;16.90;99.90;;;;;;4991342;28;20019;-90
2023/07/06 07:16:07;;;;;;;19.63;6.95;;;17.10;99.90;;;;;;4990188;28;20572;-91
2023/07/06 07:18:34;;;;;;;17.08;6.25;;;17.30;99.90;;;;;;5000773;28;20035;-91
2023/07/06 07:21:03;;;;;;;15.65;5.88;;;17.50;99.90;;;;;;4992848;28;20038;-90
2023/07/06 07:23:36;;;;;;;14.20;6.30;;;17.60;99.90;;;;;;4989550;28;20015;-90
2023/07/06 07:26:03;;;;;;;14.50;6.18;;;17.80;99.90;;;;;;4994943;28;20268;-90
2023/07/06 07:28:29;;;;;;;23.30;5.78;;;17.90;99.90;;;;;;4994469;28;20470;-90
2023/07/06 07:30:56;;;;;;;15.43;6.03;;;17.80;99.90;;;;;;5009708;28;20019;-87
2023/07/06 07:33:23;;;;;;;21.92;5.95;;;17.90;99.90;;;;;;5002514;28;20006;-90
2023/07/06 07:35:51;;;;;;;17.85;5.93;;;18.20;99.90;;;;;;5016011;28;20107;-88
2023/07/06 07:38:17;;;;;;;16.95;7.38;;;18.20;99.90;;;;;;5016786;28;20042;-91
2023/07/06 07:40:58;;;;;;;15.75;6.68;;;18.30;99.90;;;;;;5001958;28;20108;-88
2023/07/06 07:43:27;;;;;;;16.02;6.18;;;18.20;99.90;;;;;;5012128;28;20030;-91
2023/07/06 07:46:05;;;;;;;16.45;6.35;;;18.30;99.90;;;;;;5009996;28;20026;-91
2023/07/06 07:48:33;;;;;;;19.40;6.68;;;18.50;99.90;;;;;;5017896;28;20022;-92
2023/07/06 07:51:03;;;;;;;18.30;6.53;;;18.40;99.90;;;;;;5017366;28;20045;-93
2023/07/06 07:53:34;;;;;;;17.00;6.88;;;18.60;99.90;;;;;;4997222;28;20057;-91
2023/07/06 07:56:00;;;;;;;18.15;7.05;;;18.60;99.90;;;;;;5004374;28;20026;-91
2023/07/06 07:58:27;;;;;;;20.52;7.65;;;18.50;99.90;;;;;;4999944;28;20032;-91
2023/07/06 08:00:56;;;;;;;17.50;6.82;;;18.30;99.90;;;;;;4996906;28;20026;-87
2023/07/06 08:03:26;;;;;;;25.08;7.80;;;18.10;99.90;;;;;;5000159;28;20030;-91
2023/07/06 08:05:53;;;;;;;20.50;7.10;;;18.20;99.90;;;;;;4999963;28;20018;-92
2023/07/06 08:08:22;;;;;;;15.63;6.53;;;18.20;99.90;;;;;;4999515;28;20045;-91
2023/07/06 08:10:49;;;;;;;22.33;6.93;;;18.20;99.90;;;;;;5009505;28;20502;-90
2023/07/06 08:13:17;;;;;;;25.48;6.45;;;18.50;99.90;;;;;;5014556;28;20029;-89
2023/07/06 08:15:44;;;;;;;23.77;6.95;;;18.80;99.90;;;;;;4998033;28;20034;-91
2023/07/06 08:18:10;;;;;;;16.45;6.63;;;18.90;99.90;;;;;;4996907;28;20114;-88
2023/07/06 08:20:38;;;;;;;21.00;7.07;;;18.90;99.90;;;;;;4996672;28;20039;-92
2023/07/06 08:23:10;;;;;;;23.20;7.18;;;18.90;99.90;;;;;;4999044;28;20465;-91
2023/07/06 08:25:42;;;;;;;20.98;7.57;;;18.90;99.90;;;;;;4997179;28;20026;-92
2023/07/06 08:28:10;;;;;;;19.70;7.32;;;18.90;99.90;;;;;;4997250;28;20026;-90
2023/07/06 08:30:40;;;;;;;22.83;6.60;;;19.20;99.90;;;;;;5007669;28;20034;-91
2023/07/06 08:33:11;;;;;;;13.75;5.90;;;19.60;99.90;;;;;;4998972;28;20022;-88
2023/07/06 08:35:44;;;;;;;18.75;6.80;;;20.10;99.90;;;;;;4996209;28;20022;-90
2023/07/06 08:38:11;;;;;;;14.07;6.95;;;20.10;99.90;;;;;;5005810;28;20022;-89
2023/07/06 08:40:38;;;;;;;26.33;7.40;;;20.00;99.90;;;;;;4993250;28;20617;-89
2023/07/06 08:43:11;;;;;;;22.05;7.18;;;19.90;99.90;;;;;;5003257;28;20036;-90
2023/07/06 08:45:39;;;;;;;19.70;6.35;;;20.30;99.90;;;;;;5008304;28;20006;-86
2023/07/06 08:48:09;;;;;;;16.08;6.15;;;20.70;99.90;;;;;;5003007;28;20031;-88
2023/07/06 08:50:36;;;;;;;17.75;6.05;;;20.80;99.90;;;;;;4990625;28;20022;-93
2023/07/06 08:53:05;;;;;;;15.18;5.80;;;20.80;99.90;;;;;;5031918;22;20066;-90
2023/07/06 08:55:31;;;;;;;18.17;6.40;;;20.90;99.90;;;;;;5024949;28;20026;-91
2023/07/06 08:57:57;;;;;;;15.18;5.72;;;21.20;99.90;;;;;;5021044;28;20597;-87
2023/07/06 09:00:25;;;;;;;20.05;5.93;;;21.60;99.90;;;;;;5000743;28;20062;-90
2023/07/06 09:03:14;;;;;;;17.38;6.10;;;21.10;99.90;;;;;;5020675;28;20029;-89
2023/07/06 09:05:46;;;;;;;13.20;4.60;;;21.00;99.90;;;;;;5009590;28;20037;-90
2023/07/06 09:08:15;;;;;;;10.98;5.00;;;20.70;99.90;;;;;;5002684;28;20040;-89
2023/07/06 09:10:41;;;;;;;18.67;5.10;;;20.70;99.90;;;;;;5002879;28;20041;-91
2023/07/06 09:13:28;;;;;;;11.10;4.72;;;21.20;99.90;;;;;;5032369;28;20015;-92
2023/07/06 09:15:56;;;;;;;20.88;6.15;;;21.70;99.90;;;;;;5008156;28;20415;-84
2023/07/06 09:18:23;;;;;;;19.83;4.78;;;22.30;99.90;;;;;;4998783;28;20052;-84
2023/07/06 09:20:50;;;;;;;20.77;5.00;;;22.60;99.90;;;;;;5000360;28;20046;-90
2023/07/06 09:23:17;;;;;;;11.85;5.07;;;22.50;99.90;;;;;;4997664;28;20093;-89
2023/07/06 09:25:44;;;;;;;11.88;5.10;;;22.60;99.90;;;;;;4994623;28;20018;-88
2023/07/06 09:28:17;;;;;;;10.82;4.95;;;22.50;99.90;;;;;;5006811;28;20037;-87
2023/07/06 09:30:48;;;;;;;15.43;4.55;;;22.70;99.90;;;;;;5010595;28;20038;-91
2023/07/06 09:33:26;;;;;;;10.38;4.72;;;22.60;99.90;;;;;;5017057;28;20034;-92
2023/07/06 09:35:55;;;;;;;11.70;4.38;;;22.90;99.90;;;;;;5017268;28;20034;-94
2023/07/06 09:38:24;;;;;;;10.30;4.25;;;22.90;99.90;;;;;;5002850;28;20022;-95
2023/07/06 09:40:52;;;;;;;18.10;4.15;;;23.10;99.90;;;;;;5001211;28;20034;-90
2023/07/06 09:43:17;;;;;;;20.23;5.13;;;23.40;99.90;;;;;;5004309;28;20065;-93
2023/07/06 09:45:44;;;;;;;6.90;4.10;;;23.70;99.90;;;;;;4995972;28;20271;-89
2023/07/06 09:48:26;;;;;;;14.30;4.15;;;23.70;99.90;;;;;;5015909;28;20375;-94
2023/07/06 09:50:55;;;;;;;10.75;4.30;;;24.10;99.90;;;;;;5021820;28;20013;-89
2023/07/06 09:53:28;;;;;;;56.00;26.73;;;24.10;99.90;;;;;;4999909;28;20054;-82
2023/07/06 09:55:57;;;;;;;16.73;6.72;;;24.30;99.60;;;;;;4987483;28;20034;-84
2023/07/06 09:58:25;;;;;;;9.50;3.78;;;24.50;99.60;;;;;;5007495;28;20081;-89
2023/07/06 10:01:10;;;;;;;15.45;4.70;;;24.20;98.40;;;;;;4998056;28;20042;-86
2023/07/06 10:03:57;;;;;;;13.32;4.38;;;23.90;98.90;;;;;;5018523;28;20289;-91
2023/07/06 10:06:40;;;;;;;12.55;4.70;;;23.70;98.40;;;;;;4986658;28;20065;-88
2023/07/06 10:09:20;;;;;;;11.90;4.05;;;23.60;98.70;;;;;;4988267;28;20061;-91
2023/07/06 10:11:56;;;;;;;12.15;4.45;;;23.20;99.10;;;;;;4992401;28;20577;-92
2023/07/06 10:14:46;;;;;;;12.55;4.47;;;23.30;99.20;;;;;;4991006;28;20021;-87
2023/07/06 10:17:20;;;;;;;10.00;4.93;;;23.50;99.40;;;;;;5001923;28;20022;-90
2023/07/06 10:20:18;;;;;;;10.27;4.50;;;23.80;98.50;;;;;;5014400;28;20196;-87
2023/07/06 10:23:04;;;;;;;10.60;3.90;;;23.70;97.00;;;;;;4992202;28;20557;-88
2023/07/06 10:25:50;;;;;;;8.48;4.13;;;23.80;98.00;;;;;;5001826;28;20137;-92
2023/07/06 10:28:25;;;;;;;12.20;4.28;;;23.70;98.00;;;;;;4997034;28;20039;-89
2023/07/06 10:30:55;;;;;;;11.23;3.88;;;23.40;96.80;;;;;;5005472;28;20046;-88
2023/07/06 10:33:23;;;;;;;10.35;3.13;;;23.70;96.60;;;;;;4986341;28;20184;-88
2023/07/06 10:35:54;;;;;;;7.47;3.05;;;23.80;95.60;;;;;;5002151;28;20525;-89
2023/07/06 10:38:20;;;;;;;5.28;3.35;;;24.30;95.80;;;;;;4995847;28;20030;-90
2023/07/06 10:40:51;;;;;;;9.52;3.33;;;24.70;94.50;;;;;;5001724;28;20131;-88
2023/07/06 10:43:18;;;;;;;7.95;3.78;;;24.80;94.10;;;;;;5022276;28;20042;-82
2023/07/06 10:45:52;;;;;;;12.73;3.88;;;25.30;92.80;;;;;;5015812;28;20030;-85
2023/07/06 10:48:30;;;;;;;7.88;3.85;;;25.50;92.80;;;;;;4994321;28;20073;-90
2023/07/06 10:51:22;;;;;;;11.80;3.88;;;25.70;92.70;;;;;;5000557;28;20041;-84
2023/07/06 10:54:16;;;;;;;8.95;3.92;;;25.50;92.20;;;;;;4983380;28;20042;-89
2023/07/06 10:56:47;;;;;;;10.05;4.53;;;25.20;91.50;;;;;;4995547;28;20028;-88
2023/07/06 10:59:18;;;;;;;7.30;3.55;;;25.40;91.60;;;;;;4991924;28;20593;-86
2023/07/06 11:01:45;;;;;;;9.60;3.38;;;25.50;90.60;;;;;;4997488;28;20045;-84
2023/07/06 11:04:51;;;;;;;6.85;3.47;;;25.60;90.90;;;;;;5004205;28;20034;-84
2023/07/06 11:07:41;;;;;;;8.88;3.90;;;25.40;89.70;;;;;;4965435;28;20057;-96
2023/07/06 11:10:13;;;;;;;13.27;3.50;;;25.20;90.00;;;;;;4990555;28;20635;-95
2023/07/06 11:13:14;;;;;;;7.93;3.47;;;25.30;90.00;;;;;;4989833;28;20037;-89
2023/07/06 11:15:43;;;;;;;8.23;3.30;;;25.50;89.00;;;;;;5042701;22;20020;-90
2023/07/06 11:18:24;;;;;;;10.20;3.60;;;26.20;86.40;;;;;;4987275;28;20035;-90
2023/07/06 11:21:01;;;;;;;3.55;2.50;;;26.60;86.30;;;;;;4992273;28;20393;-87
2023/07/06 11:23:54;;;;;;;4.88;2.50;;;26.40;81.20;;;;;;5005075;28;20356;-93
2023/07/06 11:26:43;;;;;;;10.35;3.80;;;25.90;81.80;;;;;;4999902;28;20049;-89
2023/07/06 11:29:10;;;;;;;6.05;3.00;;;26.40;84.50;;;;;;4990918;28;20104;-95
2023/07/06 11:31:47;;;;;;;10.77;2.75;;;26.60;81.60;;;;;;5009119;28;20023;-93
2023/07/06 11:34:39;;;;;;;9.10;3.05;;;26.80;81.60;;;;;;5001487;28;20085;-91
2023/07/06 11:37:30;;;;;;;19.83;8.27;;;26.90;81.50;;;;;;5083115;22;20042;-85
2023/07/06 11:40:12;;;;;;;7.22;2.70;;;26.70;79.90;;;;;;4992300;28;20070;-86
2023/07/06 11:42:57;;;;;;;7.70;2.85;;;26.20;80.70;;;;;;5004302;28;20026;-91
2023/07/06 11:45:51;;;;;;;7.45;2.90;;;26.10;80.60;;;;;;4996962;28;20045;-86
2023/07/06 11:48:23;;;;;;;4.82;2.85;;;26.00;81.50;;;;;;4998674;28;20038;-88
2023/07/06 11:50:49;;;;;;;14.10;3.67;;;25.90;80.50;;;;;;4994876;28;20505;-86
2023/07/06 11:53:44;;;;;;;9.63;2.63;;;25.80;78.10;;;;;;5001237;28;20052;-90
2023/07/06 11:56:32;;;;;;;5.15;3.00;;;25.50;77.60;;;;;;4999022;28;20030;-88
2023/07/06 11:59:04;;;;;;;7.97;2.80;;;25.60;80.80;;;;;;5001186;28;20030;-88
2023/07/06 12:01:57;;;;;;;6.72;2.83;;;25.60;79.50;;;;;;4992447;28;20029;-88
2023/07/06 12:04:22;;;;;;;4.88;2.97;;;25.90;79.70;;;;;;5003100;28;20217;-96
2023/07/06 12:06:50;;;;;;;3.80;2.45;;;26.00;76.70;;;;;;4999256;28;20281;-86
2023/07/06 12:09:22;;;;;;;10.60;3.13;;;26.40;76.20;;;;;;4998340;28;20442;-87
2023/07/06 12:12:05;;;;;;;5.95;2.50;;;26.60;76.50;;;;;;4986204;28;20254;-96
2023/07/06 12:14:34;;;;;;;7.28;2.97;;;26.50;76.50;;;;;;4990650;28;20084;-84
2023/07/06 12:17:01;;;;;;;7.47;2.95;;;26.60;74.90;;;;;;5003737;28;20054;-87
2023/07/06 12:19:28;;;;;;;5.70;2.58;;;26.50;73.70;;;;;;4991704;28;20540;-92
2023/07/06 12:21:57;;;;;;;6.47;2.47;;;26.30;74.00;;;;;;5014658;28;20061;-86
2023/07/06 12:24:25;;;;;;;8.45;2.22;;;26.50;74.10;;;;;;5002766;28;21509;-84
2023/07/06 12:26:56;;;;;;;7.97;2.53;;;26.70;71.30;;;;;;4998660;28;20038;-88
2023/07/06 12:29:26;;;;;;;6.50;2.47;;;26.50;72.60;;;;;;4994867;28;20041;-89
2023/07/06 12:31:54;;;;;;;4.65;2.50;;;26.30;72.70;;;;;;4997535;28;20031;-88
2023/07/06 12:34:27;;;;;;;5.40;2.10;;;26.60;73.30;;;;;;5012606;28;20090;-90
2023/07/06 12:36:56;;;;;;;6.30;2.30;;;26.90;71.90;;;;;;5007438;28;20041;-87
2023/07/06 12:39:23;;;;;;;5.63;2.55;;;27.30;70.10;;;;;;5001415;28;20030;-93
2023/07/06 12:41:51;;;;;;;8.50;2.20;;;27.00;68.90;;;;;;5023275;28;20030;-86
2023/07/06 12:44:18;;;;;;;7.20;2.67;;;26.60;67.80;;;;;;5027016;28;20045;-87
2023/07/06 12:46:52;;;;;;;7.47;2.50;;;26.70;69.50;;;;;;5002924;28;20038;-86
2023/07/06 12:49:23;;;;;;;6.38;2.40;;;26.90;68.70;;;;;;5006568;28;20129;-87
2023/07/06 12:51:55;;;;;;;6.32;2.10;;;27.10;68.50;;;;;;4999710;28;20018;-92
2023/07/06 12:54:26;;;;;;;4.00;2.08;;;27.10;66.60;;;;;;5018573;28;20034;-89
2023/07/06 12:57:05;;;;;;;6.22;1.65;;;27.20;64.90;;;;;;4999706;28;20066;-86
2023/07/06 12:59:33;;;;;;;2.63;1.70;;;27.30;62.30;;;;;;5011848;28;20536;-86
2023/07/06 13:01:59;;;;;;;6.60;2.00;;;27.40;61.20;;;;;;5009375;28;20040;-87